Hlavní strana
METAR-TAF:

METAR-TAF

Letiště :

Parma, Itálie

zeměpisná šířka: 44-49-17N, zeměpisná délka: 010-17-41E, výška: 50 m

Aktuální stav počasí

Zpráva byla vytvořena před 9 hodinami a 5 minutami, v 19:50 UTC
Severozápadní vítr 3 kt
Teplota 5°C
Vlhkost vzduchu 87%
Tlak 1019 hPa
Viditelnost: 4000 m
Zataženo ve výšce 3000 ft
kouřmo

METAR: LIMP 171950Z 31003KT 4000 BR OVC030 05/03 Q1019

Čas: 05:55 (04:55 UTC)

Předpověď počasí

Zpráva byla vytvořena před 11 hodinami a 55 minutami, v 17:00 UTC
Předpověď platná od 17 v 18 UTC do 18 v 18 UTC
vítr z různých směrů 5 kt
Viditelnost: 3500 m
Oblačno až skoro zataženo ve výšce 2500 ft
Oblačno až skoro zataženo ve výšce 5000 ft
kouřmo
Dočasný
od 17 v 18 UTC do 18 v 18 UTC
Viditelnost: 2000 m
Oblačno až skoro zataženo ve výšce 1000 ft
Oblačno až skoro zataženo ve výšce 3000 ft
mrholení

TAF: LIMP 171700Z 1718/1818 VRB05KT 3500 BR BKN025 BKN050 TEMPO 1718/1818 2000 DZ BKN010 BKN030

Stav a předpovědi počasí z více než 4 000 letišť (zprávy METAR a TAF).

Červené a žluté tečky na mapě představují dostupné meteorologické stanice.

Když kurzor umístíte na tečku, zobrazí se název stanice.

Pak kliknutím zobrazíte stav a předpověď počasí.

Chcete-li změnit mapu, kliknutím na zelené tlačítko se znaménkem +mapu přiblížíte, kliknutím na zelené tlačítko se znaménkem – mapu oddálíte a kliknutím na zelené šipky přejdete na sousední mapy.


METAR-TAF: